Time;durP1;ratioP1;P1;durP2;ratioP2;P2;SDS_P1;SDS_P2;PMS_P1;PMS_P2;Temp;Humidity;BMP_temperature;BMP_pressure;BME280_temperature;BME280_humidity;BME280_pressure;Samples;Min_cycle;Max_cycle;Signal;HPM_P1;HPM_P2
2022/03/01 00:02:11;;;;;;;22.25;12.63;;;;;;;-144.19;100.00;79209.88;6186753;23;20032;-88
2022/03/01 00:04:38;;;;;;;23.35;13.48;;;;;;;-144.19;100.00;79192.16;6213227;23;20071;-87
2022/03/01 00:07:05;;;;;;;23.08;13.20;;;;;;;-144.19;100.00;79207.91;6213764;23;20412;-88
2022/03/01 00:09:31;;;;;;;22.85;13.38;;;;;;;-144.19;100.00;79241.41;6186186;23;20023;-88
2022/03/01 00:11:57;;;;;;;25.20;13.63;;;;;;;-144.19;100.00;79245.34;6186562;23;20035;-85
2022/03/01 00:14:24;;;;;;;23.27;12.80;;;;;;;-144.19;100.00;79241.41;6212578;23;20022;-85
2022/03/01 00:16:50;;;;;;;24.67;13.25;;;;;;;-144.19;100.00;79221.72;6186710;23;20107;-88
2022/03/01 00:19:17;;;;;;;26.93;15.50;;;;;;;-144.19;100.00;79227.63;6186731;23;20017;-87
2022/03/01 00:21:43;;;;;;;26.77;14.90;;;;;;;-144.19;100.00;79213.81;6186449;23;20020;-87
2022/03/01 00:24:09;;;;;;;26.60;14.60;;;;;;;-144.19;100.00;79237.47;6186388;23;20031;-87
2022/03/01 00:26:36;;;;;;;25.90;13.75;;;;;;;-144.19;100.00;79225.66;6212573;23;20020;-88
2022/03/01 00:29:03;;;;;;;27.07;13.93;;;;;;;-144.19;100.00;79229.59;6212782;23;20020;-87
2022/03/01 00:31:29;;;;;;;22.17;13.57;;;;;;;-144.19;100.00;79233.53;6186409;23;20408;-88
2022/03/01 00:33:56;;;;;;;27.20;14.82;;;;;;;-144.19;100.00;79225.66;6185960;23;20278;-88
2022/03/01 00:36:23;;;;;;;26.90;14.10;;;;;;;-144.19;100.00;79217.75;6186105;23;20031;-87
2022/03/01 00:38:49;;;;;;;24.58;13.77;;;;;;;-144.19;100.00;79205.94;6185814;23;20046;-86
2022/03/01 00:41:15;;;;;;;25.93;12.60;;;;;;;-144.19;100.00;79225.66;6186204;23;20016;-88
2022/03/01 00:43:42;;;;;;;23.77;13.63;;;;;;;-144.19;100.00;79253.22;6185562;23;20039;-89
2022/03/01 00:46:08;;;;;;;28.48;14.82;;;;;;;-144.19;100.00;79276.84;6186553;23;20243;-88
2022/03/01 00:48:35;;;;;;;26.48;14.05;;;;;;;-144.19;100.00;79268.97;6212676;23;20079;-87
2022/03/01 00:51:03;;;;;;;28.67;14.00;;;;;;;-144.19;100.00;79249.28;6186002;23;20016;-88
2022/03/01 00:53:29;;;;;;;24.20;13.07;;;;;;;-144.19;100.00;79202.00;6212616;23;20020;-86
2022/03/01 00:55:55;;;;;;;24.93;12.40;;;;;;;-144.19;100.00;79207.91;6212668;23;20031;-87
2022/03/01 00:58:22;;;;;;;26.33;12.53;;;;;;;-144.19;100.00;79221.72;6186285;23;20274;-87
2022/03/01 01:00:48;;;;;;;25.07;12.93;;;;;;;-144.19;100.00;79217.75;6186289;23;20017;-88
2022/03/01 01:03:15;;;;;;;27.10;13.98;;;;;;;-144.19;100.00;79213.81;6186438;23;20024;-87
2022/03/01 01:05:41;;;;;;;22.52;12.40;;;;;;;-144.19;100.00;79194.13;6186051;23;20082;-86
2022/03/01 01:08:08;;;;;;;26.53;13.07;;;;;;;-144.19;100.00;79180.34;6186675;23;20413;-86
2022/03/01 01:10:34;;;;;;;23.83;12.93;;;;;;;-144.19;100.00;79170.50;6185693;23;20021;-88
2022/03/01 01:13:01;;;;;;;21.50;11.17;;;;;;;-144.19;100.00;79162.63;6186161;23;20032;-88
2022/03/01 01:15:27;;;;;;;23.02;12.32;;;;;;;-144.19;100.00;79162.63;6186196;23;20020;-88
2022/03/01 01:17:53;;;;;;;25.20;12.67;;;;;;;-144.19;100.00;79174.44;6186224;23;20017;-87
2022/03/01 01:20:20;;;;;;;27.63;12.80;;;;;;;-144.19;100.00;79190.19;6212407;23;20231;-88
2022/03/01 01:22:46;;;;;;;26.17;13.60;;;;;;;-144.19;100.00;79196.09;6185798;23;20031;-88
2022/03/01 01:25:21;;;;;;;24.95;12.73;;;;;;;-144.19;100.00;79190.19;6186108;23;20397;-87
2022/03/01 01:27:50;;;;;;;24.67;12.90;;;;;;;-144.19;100.00;79182.31;6186089;23;20020;-87
2022/03/01 01:30:21;;;;;;;27.17;13.63;;;;;;;-144.19;100.00;79186.25;6212123;23;20017;-86
2022/03/01 01:32:48;;;;;;;27.17;13.25;;;;;;;-144.19;100.00;79205.94;6185746;23;20025;-89
2022/03/01 01:35:19;;;;;;;24.55;13.05;;;;;;;-144.19;100.00;79209.88;6186806;23;20032;-87
2022/03/01 01:37:46;;;;;;;27.23;13.40;;;;;;;-144.19;100.00;79229.59;6212739;23;20115;-86
2022/03/01 01:40:14;;;;;;;;;;;;;;;-144.19;100.00;79237.47;6186065;23;20031;-86
2022/03/01 01:42:41;;;;;;;27.17;13.02;;;;;;;-144.19;100.00;79233.53;6186005;23;19919;-87
2022/03/01 01:45:09;;;;;;;24.67;12.85;;;;;;;-144.19;100.00;79239.44;6186424;23;20095;-87
2022/03/01 01:47:44;;;;;;;25.20;12.05;;;;;;;-144.19;100.00;79227.63;6213134;23;20039;-86
2022/03/01 01:50:10;;;;;;;23.40;13.00;;;;;;;-144.19;100.00;79221.72;6187472;23;20020;-85
2022/03/01 01:52:37;;;;;;;36.95;16.52;;;;;;;-144.19;100.00;79225.66;6213910;23;20016;-87
2022/03/01 01:55:04;;;;;;;25.63;13.60;;;;;;;-144.19;100.00;79221.72;6187970;23;20107;-88
2022/03/01 01:57:30;;;;;;;24.17;13.32;;;;;;;-144.19;100.00;79241.41;6214451;23;20026;-87
2022/03/01 01:59:57;;;;;;;21.53;12.87;;;;;;;-144.19;100.00;79249.28;6187166;23;20013;-87
2022/03/01 02:02:24;;;;;;;28.10;13.88;;;;;;;-144.19;100.00;79249.28;6187902;23;20021;-85
2022/03/01 02:04:51;;;;;;;22.80;11.75;;;;;;;-144.19;100.00;79280.78;6187280;23;20028;-87
2022/03/01 02:07:18;;;;;;;28.63;13.98;;;;;;;-144.19;100.00;79288.69;6187587;23;20362;-87
2022/03/01 02:09:44;;;;;;;25.70;12.13;;;;;;;-144.19;100.00;79284.75;6213938;23;20021;-88
2022/03/01 02:12:10;;;;;;;29.23;15.43;;;;;;;-144.19;100.00;79296.56;6187379;23;20465;-87
2022/03/01 02:14:38;;;;;;;27.55;14.23;;;;;;;-144.19;100.00;79296.56;6214340;23;20043;-85
2022/03/01 02:17:08;;;;;;;23.85;12.77;;;;;;;-144.19;100.00;79288.69;6187450;23;20020;-86
2022/03/01 02:19:35;;;;;;;25.73;12.70;;;;;;;-144.19;100.00;79300.50;6187645;23;20040;-87
2022/03/01 02:22:01;;;;;;;29.75;14.23;;;;;;;-144.19;100.00;79282.75;6213419;23;20036;-86
2022/03/01 02:24:30;;;;;;;25.48;13.05;;;;;;;-144.19;100.00;79298.53;6187614;23;20091;-87
2022/03/01 02:26:59;;;;;;;24.05;12.95;;;;;;;-144.19;100.00;79292.63;6187314;23;20020;-85
2022/03/01 02:29:26;;;;;;;24.80;12.57;;;;;;;-144.19;100.00;79330.03;6187584;23;20024;-85
2022/03/01 02:31:54;;;;;;;32.00;13.27;;;;;;;-144.19;100.00;79320.19;6186758;23;20491;-87
2022/03/01 02:34:20;;;;;;;27.15;12.88;;;;;;;-144.19;100.00;79324.13;6187051;23;20104;-87
2022/03/01 02:36:47;;;;;;;22.88;13.07;;;;;;;-144.19;100.00;79328.06;6213802;23;20024;-87
2022/03/01 02:39:14;;;;;;;27.02;12.98;;;;;;;-144.19;100.00;79345.81;6213848;23;20042;-87
2022/03/01 02:41:44;;;;;;;27.60;13.00;;;;;;;-144.19;100.00;79318.22;6213865;23;20017;-86
2022/03/01 02:44:11;;;;;;;25.70;13.13;;;;;;;-144.19;100.00;79332.00;6213206;23;20335;-86
2022/03/01 02:46:38;;;;;;;25.40;12.88;;;;;;;-144.19;100.00;79345.81;6213587;23;20120;-89
2022/03/01 02:49:07;;;;;;;27.60;12.82;;;;;;;-144.19;100.00;79335.94;6186970;23;20023;-86
2022/03/01 02:51:34;;;;;;;26.77;13.85;;;;;;;-144.19;100.00;79365.50;6186697;23;20026;-86
2022/03/01 02:54:02;;;;;;;29.75;13.40;;;;;;;-144.19;100.00;79332.00;6186907;23;20020;-86
2022/03/01 02:56:29;;;;;;;24.50;12.10;;;;;;;-144.19;100.00;79341.84;6187117;23;20027;-85
2022/03/01 02:58:55;;;;;;;28.03;12.53;;;;;;;-144.19;100.00;79349.75;6186554;23;20020;-86
2022/03/01 03:01:22;;;;;;;31.30;14.20;;;;;;;-144.19;100.00;79365.50;6213301;23;20773;-88
2022/03/01 03:03:49;;;;;;;29.13;13.18;;;;;;;-144.19;100.00;79335.94;6213102;23;20020;-86
2022/03/01 03:06:17;;;;;;;24.63;13.00;;;;;;;-144.19;100.00;79355.66;6187010;23;20031;-88
2022/03/01 03:08:44;;;;;;;25.10;12.82;;;;;;;-144.19;100.00;79379.28;6187098;23;20516;-87
2022/03/01 03:11:11;;;;;;;30.55;12.93;;;;;;;-144.19;100.00;79375.34;6186612;23;20026;-87
2022/03/01 03:13:38;;;;;;;27.50;13.50;;;;;;;-144.19;100.00;79347.78;6186348;23;20338;-87
2022/03/01 03:16:05;;;;;;;25.63;14.43;;;;;;;-144.19;100.00;79335.94;6213590;23;20032;-85
2022/03/01 03:18:31;;;;;;;27.48;13.57;;;;;;;-144.19;100.00;79328.06;6213660;23;20304;-85
2022/03/01 03:21:00;;;;;;;27.05;13.57;;;;;;;-144.19;100.00;79324.13;6187381;23;20063;-87
2022/03/01 03:23:27;;;;;;;26.70;13.77;;;;;;;-144.19;100.00;79320.19;6186912;23;20027;-88
2022/03/01 03:25:54;;;;;;;30.07;15.40;;;;;;;-144.19;100.00;79328.06;6213322;23;20401;-86
2022/03/01 03:28:21;;;;;;;;;;;;;;;-144.19;100.00;79320.19;6187535;23;20243;-86
2022/03/01 03:30:47;;;;;;;31.45;13.82;;;;;;;-144.19;100.00;79312.31;6213064;23;19916;-86
2022/03/01 03:33:14;;;;;;;29.00;12.60;;;;;;;-144.19;100.00;79318.22;6186647;23;20021;-85
2022/03/01 03:35:40;;;;;;;25.60;12.83;;;;;;;-144.19;100.00;79343.81;6212715;23;20021;-87
2022/03/01 03:38:08;;;;;;;28.85;13.65;;;;;;;-144.19;100.00;79333.97;6211328;23;20560;-85
2022/03/01 03:40:34;;;;;;;25.55;13.82;;;;;;;-144.19;100.00;79335.94;6186357;23;20044;-83
2022/03/01 03:43:00;;;;;;;28.92;14.18;;;;;;;-144.19;100.00;79328.06;6186278;23;20021;-86
2022/03/01 03:45:27;;;;;;;29.23;13.45;;;;;;;-144.19;100.00;79310.34;6186425;23;20027;-88
2022/03/01 03:47:53;;;;;;;26.23;12.77;;;;;;;-144.19;100.00;79308.38;6186574;23;20024;-87
2022/03/01 03:50:20;;;;;;;30.17;14.18;;;;;;;-144.19;100.00;79300.50;6186515;23;20027;-85
2022/03/01 03:52:46;;;;;;;28.67;13.77;;;;;;;-144.19;100.00;79300.50;6186682;23;20021;-87
2022/03/01 03:55:13;;;;;;;26.23;13.33;;;;;;;-144.19;100.00;79308.38;6186034;23;20260;-85
2022/03/01 03:57:40;;;;;;;26.80;15.00;;;;;;;-144.19;100.00;79300.50;6186677;23;20038;-86
2022/03/01 04:00:07;;;;;;;;;;;;;;;-144.19;100.00;79280.78;6186839;23;20240;-86
2022/03/01 04:02:34;;;;;;;28.70;14.80;;;;;;;-144.19;100.00;79265.03;6212963;23;20260;-86
2022/03/01 04:05:01;;;;;;;33.65;15.40;;;;;;;-144.19;100.00;79241.41;6187020;23;20115;-86
2022/03/01 04:07:27;;;;;;;32.03;17.23;;;;;;;-144.19;100.00;79229.59;6213832;23;20020;-86
2022/03/01 04:09:53;;;;;;;34.80;16.05;;;;;;;-144.19;100.00;79225.66;6185891;23;20025;-87
2022/03/01 04:12:20;;;;;;;27.90;15.33;;;;;;;-144.19;100.00;79221.72;6186167;23;20021;-86
2022/03/01 04:14:46;;;;;;;27.73;15.27;;;;;;;-144.19;100.00;79223.69;6213092;23;20240;-87
2022/03/01 04:17:13;;;;;;;29.63;15.60;;;;;;;-144.19;100.00;79229.59;6212576;23;20035;-86
2022/03/01 04:19:39;;;;;;;27.10;13.45;;;;;;;-144.19;100.00;79233.53;6211629;23;20195;-87
2022/03/01 04:22:06;;;;;;;31.33;15.18;;;;;;;-144.19;100.00;79245.34;6186281;23;20016;-87
2022/03/01 04:24:32;;;;;;;27.98;14.15;;;;;;;-144.19;100.00;79247.31;6186265;23;20028;-86
2022/03/01 04:26:59;;;;;;;30.13;15.27;;;;;;;-144.19;100.00;79237.47;6186307;23;20027;-87
2022/03/01 04:29:25;;;;;;;30.00;14.82;;;;;;;-144.19;100.00;79229.59;6186304;23;20020;-86
2022/03/01 04:31:52;;;;;;;29.65;15.45;;;;;;;-144.19;100.00;79233.53;6212433;23;20039;-87
2022/03/01 04:34:18;;;;;;;29.95;14.63;;;;;;;-144.19;100.00;79241.41;6185547;23;20020;-83
2022/03/01 04:36:45;;;;;;;27.43;14.07;;;;;;;-144.19;100.00;79257.16;6212225;23;20021;-84
2022/03/01 04:39:11;;;;;;;28.93;13.97;;;;;;;-144.19;100.00;79284.75;6212773;23;20248;-86
2022/03/01 04:41:38;;;;;;;32.03;15.23;;;;;;;-144.19;100.00;79286.72;6185858;23;20031;-83
2022/03/01 04:44:07;;;;;;;25.33;14.45;;;;;;;-144.19;100.00;79284.75;6185997;23;20246;-86
2022/03/01 04:46:33;;;;;;;30.05;14.70;;;;;;;-144.19;100.00;79292.63;6185931;23;20031;-86
2022/03/01 04:49:00;;;;;;;28.20;14.98;;;;;;;-144.19;100.00;79292.63;6185746;23;20458;-86
2022/03/01 04:51:26;;;;;;;27.58;13.98;;;;;;;-144.19;100.00;79296.56;6185662;23;20023;-86
2022/03/01 04:53:53;;;;;;;30.98;15.52;;;;;;;-144.19;100.00;79298.53;6185694;23;20230;-87
2022/03/01 04:56:19;;;;;;;31.08;15.23;;;;;;;-144.19;100.00;79310.34;6190420;23;20025;-86
2022/03/01 04:58:46;;;;;;;36.67;17.80;;;;;;;-144.19;100.00;79314.28;6216099;23;20025;-86
2022/03/01 05:01:13;;;;;;;34.47;18.03;;;;;;;-144.19;100.00;79296.56;6217480;23;20021;-87
2022/03/01 05:03:40;;;;;;;31.48;14.95;;;;;;;-144.19;100.00;79280.78;6192467;23;20243;-88
2022/03/01 05:06:06;;;;;;;26.08;15.60;;;;;;;-144.19;100.00;79270.94;6215652;23;20016;-86
2022/03/01 05:08:32;;;;;;;30.33;15.23;;;;;;;-144.19;100.00;79268.97;6216718;23;20020;-85
2022/03/01 05:11:01;;;;;;;31.97;16.00;;;;;;;-144.19;100.00;79247.31;6190243;23;20743;-85
2022/03/01 05:13:27;;;;;;;31.60;15.18;;;;;;;-144.19;100.00;79237.47;6188571;23;20023;-85
2022/03/01 05:15:54;;;;;;;31.02;14.88;;;;;;;-144.19;100.00;79225.66;6215429;23;20020;-86
2022/03/01 05:18:21;;;;;;;34.58;16.38;;;;;;;-144.19;100.00;79227.63;6190363;23;20021;-85
2022/03/01 05:20:48;;;;;;;33.13;15.93;;;;;;;-144.19;100.00;79221.72;6214998;23;20072;-85
2022/03/01 05:23:15;;;;;;;32.10;16.85;;;;;;;-144.19;100.00;79221.72;6193159;23;20024;-87
2022/03/01 05:25:43;;;;;;;30.77;15.55;;;;;;;-144.19;100.00;79223.69;6219208;23;20038;-85
2022/03/01 05:28:09;;;;;;;31.50;16.33;;;;;;;-144.19;100.00;79225.66;6191466;23;20024;-85
2022/03/01 05:30:37;;;;;;;31.45;16.35;;;;;;;-144.19;100.00;79229.59;6191057;23;20020;-86
2022/03/01 05:33:03;;;;;;;35.33;17.58;;;;;;;-144.19;100.00;79241.41;6189466;23;20095;-87
2022/03/01 05:35:31;;;;;;;29.30;14.15;;;;;;;-144.19;100.00;79261.09;6216589;23;20024;-85
2022/03/01 05:37:58;;;;;;;30.23;15.02;;;;;;;-144.19;100.00;79263.06;6189348;23;20461;-86
2022/03/01 05:40:27;;;;;;;31.38;15.32;;;;;;;-144.19;100.00;79280.78;6217593;23;20017;-86
2022/03/01 05:42:55;;;;;;;32.05;17.00;;;;;;;-144.19;100.00;79288.69;6189716;23;20016;-87
2022/03/01 05:45:21;;;;;;;29.63;15.25;;;;;;;-144.19;100.00;79302.47;6190518;23;20023;-88
2022/03/01 05:47:48;;;;;;;28.65;15.75;;;;;;;-144.19;100.00;79304.44;6191950;23;20488;-85
2022/03/01 05:50:16;;;;;;;32.80;17.55;;;;;;;-144.19;100.00;79288.69;6189088;23;20028;-86
2022/03/01 05:52:48;;;;;;;31.52;16.65;;;;;;;-144.19;100.00;79288.69;6217789;23;20092;-91
2022/03/01 05:55:14;;;;;;;30.83;15.63;;;;;;;-144.19;100.00;79286.72;6191440;23;20029;-86
2022/03/01 05:57:41;;;;;;;33.20;16.80;;;;;;;-144.19;100.00;79284.75;6191240;23;20023;-85
2022/03/01 06:00:12;;;;;;;36.17;16.35;;;;;;;-144.19;100.00;79284.75;6190418;23;20239;-86
2022/03/01 06:02:40;;;;;;;29.30;15.38;;;;;;;-144.19;100.00;79284.75;6215296;23;20103;-87
2022/03/01 06:05:07;;;;;;;30.30;15.80;;;;;;;-144.19;100.00;79312.31;6188749;23;20075;-87
2022/03/01 06:07:33;;;;;;;34.45;16.98;;;;;;;-144.19;100.00;79320.19;6189075;23;20051;-86
2022/03/01 06:10:00;;;;;;;31.77;17.08;;;;;;;-144.19;100.00;79312.31;6188315;23;20449;-86
2022/03/01 06:12:26;;;;;;;30.17;16.33;;;;;;;-144.19;100.00;79318.22;6188005;23;20021;-87
2022/03/01 06:14:53;;;;;;;29.10;15.95;;;;;;;-144.19;100.00;79304.44;6188450;23;20112;-87
2022/03/01 06:17:19;;;;;;;32.77;16.73;;;;;;;-144.19;100.00;79312.31;6188516;23;20473;-86
2022/03/01 06:19:46;;;;;;;35.87;16.87;;;;;;;-144.19;100.00;79300.50;6215540;23;20255;-85
2022/03/01 06:22:13;;;;;;;31.10;15.83;;;;;;;-144.19;100.00;79316.25;6189456;23;20020;-87
2022/03/01 06:24:41;;;;;;;30.27;15.65;;;;;;;-144.19;100.00;79298.53;6189744;23;20372;-87
2022/03/01 06:27:08;;;;;;;33.80;16.25;;;;;;;-144.19;100.00;79284.75;6215153;23;20461;-87
2022/03/01 06:29:34;;;;;;;;;;;;;;;-144.19;100.00;79286.72;6216066;23;20665;-87
2022/03/01 06:32:01;;;;;;;28.55;15.35;;;;;;;-144.19;100.00;79280.78;6188548;23;19915;-86
2022/03/01 06:34:28;;;;;;;30.13;16.17;;;;;;;-144.19;100.00;79261.09;6188173;23;20241;-84
2022/03/01 06:36:54;;;;;;;32.60;15.85;;;;;;;-144.19;100.00;79259.13;6188603;23;20021;-87
2022/03/01 06:39:20;;;;;;;28.88;16.25;;;;;;;-144.19;100.00;79259.13;6215238;23;20353;-86
2022/03/01 06:41:47;;;;;;;33.57;15.80;;;;;;;-144.19;100.00;79276.84;6188565;23;20017;-86
2022/03/01 06:44:13;;;;;;;34.70;15.97;;;;;;;-144.19;100.00;79259.13;6188913;23;20246;-86
2022/03/01 06:46:40;;;;;;;35.63;16.33;;;;;;;-144.19;100.00;79217.75;6189542;23;20096;-88
2022/03/01 06:49:07;;;;;;;31.38;15.85;;;;;;;-144.19;100.00;79217.75;6189081;23;20032;-87
2022/03/01 06:51:34;;;;;;;26.57;14.37;;;;;;;-144.19;100.00;79217.75;6215096;23;20276;-90
2022/03/01 06:54:00;;;;;;;28.38;15.95;;;;;;;-144.19;100.00;79205.94;6188515;23;20022;-86
2022/03/01 06:56:27;;;;;;;33.70;16.52;;;;;;;-144.19;100.00;79190.19;6214741;23;20037;-85
2022/03/01 06:58:54;;;;;;;26.77;15.32;;;;;;;-144.19;100.00;79203.97;6189361;23;20032;-88
2022/03/01 07:01:20;;;;;;;27.77;16.80;;;;;;;-144.19;100.00;79207.91;6188632;23;20039;-88
2022/03/01 07:03:47;;;;;;;28.73;15.35;;;;;;;-144.19;100.00;79198.06;6189113;23;20048;-86
2022/03/01 07:06:14;;;;;;;31.60;16.52;;;;;;;-144.19;100.00;79186.25;6215849;23;20031;-86
2022/03/01 07:08:40;;;;;;;31.10;17.30;;;;;;;-144.19;100.00;79172.47;6188697;23;20020;-87
2022/03/01 07:11:07;;;;;;;25.67;15.05;;;;;;;-144.19;100.00;79174.44;6213701;23;20746;-86
2022/03/01 07:13:33;;;;;;;32.40;16.88;;;;;;;-144.19;100.00;79158.69;6215598;23;20028;-86
2022/03/01 07:15:59;;;;;;;32.40;16.53;;;;;;;-144.19;100.00;79127.16;6188414;23;20024;-84
2022/03/01 07:18:26;;;;;;;25.73;15.03;;;;;;;-144.19;100.00;79083.81;6188719;23;20056;-86
2022/03/01 07:20:52;;;;;;;25.97;16.03;;;;;;;-144.19;100.00;79054.28;6188815;23;20020;-86
2022/03/01 07:23:18;;;;;;;25.70;14.43;;;;;;;-144.19;100.00;79044.44;6213769;23;20020;-86
2022/03/01 07:25:45;;;;;;;29.10;15.83;;;;;;;-144.19;100.00;79040.50;6187873;23;20247;-86
2022/03/01 07:28:11;;;;;;;30.17;15.57;;;;;;;-144.19;100.00;79028.69;6188042;23;20359;-86
2022/03/01 07:30:38;;;;;;;32.03;15.70;;;;;;;-144.19;100.00;79012.91;6214134;23;20027;-86
2022/03/01 07:33:04;;;;;;;30.47;16.13;;;;;;;-144.19;100.00;79008.97;6188103;23;20023;-87
2022/03/01 07:35:31;;;;;;;30.57;15.83;;;;;;;-144.19;100.00;79001.09;6188283;23;20264;-87
2022/03/01 07:37:57;;;;;;;29.87;15.73;;;;;;;-144.19;100.00;78999.13;6188427;23;20255;-86
2022/03/01 07:40:26;;;;;;;28.75;16.17;;;;;;;-144.19;100.00;78991.25;6213739;23;20113;-86
2022/03/01 07:42:53;;;;;;;27.83;14.93;;;;;;;-144.19;100.00;78977.47;6187776;23;20402;-86
2022/03/01 07:45:19;;;;;;;28.88;14.90;;;;;;;-144.19;100.00;78973.53;6188005;23;20020;-87
2022/03/01 07:47:48;;;;;;;28.85;14.85;;;;;;;-144.19;100.00;78957.78;6188441;23;20047;-85
2022/03/01 07:50:15;;;;;;;28.70;16.05;;;;;;;-144.19;100.00;78949.91;6187331;23;20052;-87
2022/03/01 07:52:41;;;;;;;24.47;14.10;;;;;;;-144.19;100.00;78934.13;6187680;23;20023;-88
2022/03/01 07:55:08;;;;;;;31.03;16.40;;;;;;;-144.19;100.00;78926.25;6188321;23;20306;-86
2022/03/01 07:57:35;;;;;;;25.63;15.02;;;;;;;-144.19;100.00;78922.31;6216546;23;20247;-88
2022/03/01 08:00:03;;;;;;;27.23;14.57;;;;;;;-144.19;100.00;78912.47;6188753;23;20350;-87
2022/03/01 08:02:29;;;;;;;26.45;14.13;;;;;;;-144.19;100.00;78898.69;6187885;23;20017;-88
2022/03/01 08:04:56;;;;;;;25.33;13.75;;;;;;;-144.19;100.00;78904.59;6188920;23;20029;-86
2022/03/01 08:07:42;;;;;;;24.67;14.02;;;;;;;-144.19;100.00;78879.00;6191874;23;20032;-85
2022/03/01 08:10:08;;;;;;;24.97;14.43;;;;;;;-144.19;100.00;78865.19;6214394;23;20025;-83
2022/03/01 08:12:35;;;;;;;26.95;14.07;;;;;;;-144.19;100.00;78863.22;6187626;23;20389;-83
2022/03/01 08:15:01;;;;;;;29.10;13.50;;;;;;;-144.19;100.00;78855.34;6189320;23;20020;-88
2022/03/01 08:17:28;;;;;;;26.30;14.80;;;;;;;-144.19;100.00;78847.47;6187467;23;20020;-88
2022/03/01 08:19:54;;;;;;;29.23;15.50;;;;;;;-144.19;100.00;78845.50;6216541;23;20020;-88
2022/03/01 08:22:21;;;;;;;24.33;14.67;;;;;;;-144.19;100.00;78855.34;6213100;23;20016;-87
2022/03/01 08:24:50;;;;;;;24.37;14.10;;;;;;;-144.19;100.00;78839.59;6188719;23;20244;-86
2022/03/01 08:27:17;;;;;;;27.80;14.75;;;;;;;-144.19;100.00;78841.56;6213551;23;20260;-86
2022/03/01 08:29:44;;;;;;;27.00;14.30;;;;;;;-144.19;100.00;78851.41;6214345;23;20059;-87
2022/03/01 08:32:11;;;;;;;28.08;13.10;;;;;;;-144.19;100.00;78843.53;6214483;23;20016;-87
2022/03/01 08:34:37;;;;;;;26.77;14.03;;;;;;;-144.19;100.00;78851.41;6187446;23;20025;-84
2022/03/01 08:37:04;;;;;;;25.88;14.40;;;;;;;-144.19;100.00;78851.41;6187449;23;20556;-86
2022/03/01 08:39:30;;;;;;;23.80;12.27;;;;;;;-144.19;100.00;78835.66;6186905;23;20333;-86
2022/03/01 08:41:58;;;;;;;26.13;13.57;;;;;;;-144.19;100.00;78839.59;6187433;23;20091;-87
2022/03/01 08:44:24;;;;;;;26.30;14.77;;;;;;;-144.19;100.00;78843.53;6213335;23;20016;-86
2022/03/01 08:46:52;;;;;;;21.50;13.13;;;;;;;-144.19;100.00;78835.66;6188242;23;20055;-87
2022/03/01 08:49:19;;;;;;;26.65;15.63;;;;;;;-144.19;100.00;78827.78;6187332;23;20352;-88
2022/03/01 08:51:46;;;;;;;23.65;13.13;;;;;;;-144.19;100.00;78815.97;6187638;23;20020;-87
2022/03/01 08:54:12;;;;;;;26.13;12.73;;;;;;;-144.19;100.00;78792.34;6187549;23;20028;-88
2022/03/01 08:56:39;;;;;;;26.77;13.82;;;;;;;-144.19;100.00;78800.22;6187728;23;20048;-88
2022/03/01 08:59:05;;;;;;;24.63;12.73;;;;;;;-144.19;100.00;78806.13;6188432;23;20046;-87
2022/03/01 09:01:32;;;;;;;22.03;13.00;;;;;;;-144.19;100.00;78790.38;6214889;23;20032;-88
2022/03/01 09:03:59;;;;;;;26.15;13.93;;;;;;;-144.19;100.00;78768.69;6214595;23;20251;-86
2022/03/01 09:06:26;;;;;;;22.67;13.98;;;;;;;-144.19;98.32;78745.06;6213879;23;20044;-86
2022/03/01 09:08:53;;;;;;;21.92;13.40;;;;;;;-144.19;99.45;78741.13;6187427;23;20519;-88
2022/03/01 09:11:19;;;;;;;21.27;12.32;;;;;;;-144.19;96.42;78733.25;6187351;23;20096;-84
2022/03/01 09:13:46;;;;;;;21.23;12.87;;;;;;;-144.19;97.34;78741.13;6187479;23;20020;-89
2022/03/01 09:16:12;;;;;;;23.27;12.57;;;;;;;-144.19;95.18;78713.56;6214494;23;20031;-87
2022/03/01 09:18:39;;;;;;;24.40;13.55;;;;;;;-144.19;94.52;78693.84;6187470;23;20029;-87
2022/03/01 09:21:06;;;;;;;23.90;12.60;;;;;;;-144.19;96.82;78691.88;6214155;23;20016;-87
2022/03/01 09:23:38;;;;;;;27.00;14.13;;;;;;;-144.19;98.88;78678.09;6191697;23;20425;-87
2022/03/01 09:26:04;;;;;;;21.47;12.43;;;;;;;-144.19;95.37;78652.50;6187376;23;20051;-87
2022/03/01 09:28:31;;;;;;;25.80;13.73;;;;;;;-144.19;94.37;78642.66;6189054;23;20024;-88
2022/03/01 09:30:57;;;;;;;23.30;14.13;;;;;;;-144.19;91.87;78613.09;6187290;23;20739;-87
2022/03/01 09:33:24;;;;;;;24.30;14.13;;;;;;;-144.19;89.30;78595.38;6214197;23;20465;-87
2022/03/01 09:35:50;;;;;;;25.27;12.73;;;;;;;-144.19;91.52;78593.41;6188224;23;20029;-87
2022/03/01 09:38:16;;;;;;;22.00;12.60;;;;;;;-144.19;91.10;78591.44;6189788;23;20025;-87
2022/03/01 09:40:47;;;;;;;23.17;13.65;;;;;;;-144.19;91.91;78583.56;6187971;23;20103;-87
2022/03/01 09:43:15;;;;;;;24.48;12.85;;;;;;;-144.19;84.81;78532.38;6187500;23;20449;-87
2022/03/01 09:45:42;;;;;;;21.35;13.20;;;;;;;-144.19;84.36;78514.63;6187562;23;20358;-85
2022/03/01 09:48:09;;;;;;;25.08;12.50;;;;;;;-144.19;78.51;78492.97;6187380;23;20027;-85
2022/03/01 09:50:35;;;;;;;21.65;12.73;;;;;;;-144.19;77.41;78469.34;6187366;23;20395;-87
2022/03/01 09:53:02;;;;;;;18.27;10.67;;;;;;;-144.19;73.09;78465.41;6212079;23;20027;-85
2022/03/01 09:55:29;;;;;;;17.77;11.13;;;;;;;-144.19;74.78;78426.03;6216002;23;20283;-87
2022/03/01 09:57:56;;;;;;;17.40;10.97;;;;;;;-144.19;71.74;78435.88;6187880;23;20027;-85
2022/03/01 10:00:23;;;;;;;20.70;11.38;;;;;;;-144.19;72.90;78406.31;6187919;23;20079;-86
2022/03/01 10:02:54;;;;;;;25.30;11.50;;;;;;;-144.19;70.35;78414.19;6215297;23;20016;-86
2022/03/01 10:05:40;;;;;;;21.08;11.45;;;;;;;-144.19;69.08;78386.63;6187806;23;20025;-86
2022/03/01 10:08:11;;;;;;;18.90;10.48;;;;;;;-144.19;65.49;78372.84;6213769;23;20031;-87
2022/03/01 10:10:40;;;;;;;21.17;12.40;;;;;;;-144.19;63.29;78339.38;6189065;23;20088;-85
2022/03/01 10:13:08;;;;;;;22.77;11.63;;;;;;;-144.19;63.40;78299.97;6188435;23;20052;-85
2022/03/01 10:15:35;;;;;;;25.10;13.68;;;;;;;-144.19;62.69;78268.47;6188485;23;20025;-84
2022/03/01 10:18:13;;;;;;;20.13;11.93;;;;;;;-144.19;61.30;78219.25;6214788;23;20025;-87
2022/03/01 10:20:41;;;;;;;18.58;10.70;;;;;;;-144.19;59.44;78189.72;6187304;23;20499;-85
2022/03/01 10:23:09;;;;;;;23.27;11.18;;;;;;;-144.19;59.54;78146.38;6214874;23;20473;-84
2022/03/01 10:25:43;;;;;;;21.23;12.05;;;;;;;-144.19;60.53;78134.56;6188727;23;20060;-88
2022/03/01 10:28:10;;;;;;;17.55;9.73;;;;;;;-144.19;56.63;78266.50;6214721;23;20020;-86
2022/03/01 10:30:38;;;;;;;17.35;10.88;;;;;;;-144.19;56.73;78252.72;6187446;23;20039;-84
2022/03/01 10:33:14;;;;;;;15.85;10.18;;;;;;;-144.19;57.29;78264.53;6187900;23;20108;-86
2022/03/01 10:35:48;;;;;;;;;;;;;;;-144.19;55.43;78236.97;6189065;23;20601;-85
2022/03/01 10:38:21;;;;;;;17.27;9.77;;;;;;;-144.19;54.95;78217.28;6187630;23;20375;-85
2022/03/01 10:40:56;;;;;;;19.13;10.75;;;;;;;-144.19;56.09;78130.63;6212530;23;20028;-85
2022/03/01 10:43:25;;;;;;;21.55;11.63;;;;;;;-144.19;55.24;78097.16;6214852;23;20364;-84
2022/03/01 10:45:52;;;;;;;17.15;9.95;;;;;;;-144.19;56.43;78079.44;6187953;23;20028;-86
2022/03/01 10:48:24;;;;;;;15.57;9.85;;;;;;;-144.19;53.89;78150.31;6187640;23;20505;-84
2022/03/01 10:51:08;;;;;;;16.27;10.02;;;;;;;-144.19;53.88;78207.44;6187683;23;20115;-84
2022/03/01 10:53:35;;;;;;;17.60;10.25;;;;;;;-144.19;54.56;78177.91;6187898;23;20031;-88
2022/03/01 10:56:07;;;;;;;;;;;;;;;-144.19;54.78;78189.72;6187886;23;20030;-84
2022/03/01 10:58:38;;;;;;;14.57;9.95;;;;;;;-144.19;55.25;78209.41;6214700;23;19916;-85